createdAt,value
2022-12-24T00:00:54.183Z,2.20
2022-12-24T00:03:31.559Z,2.60
2022-12-24T00:06:03.006Z,2.40
2022-12-24T00:08:37.792Z,2.40
2022-12-24T00:11:08.112Z,2.80
2022-12-24T00:13:41.756Z,2.70
2022-12-24T00:16:12.374Z,2.10
2022-12-24T00:18:46.979Z,2.80
2022-12-24T00:21:17.802Z,2.60
2022-12-24T00:23:46.983Z,2.03
2022-12-24T00:26:16.091Z,2.57
2022-12-24T00:28:44.631Z,2.23
2022-12-24T00:31:15.759Z,3.43
2022-12-24T00:33:49.938Z,2.20
2022-12-24T00:36:20.701Z,2.70
2022-12-24T00:38:49.476Z,2.73
2022-12-24T00:41:29.640Z,2.50
2022-12-24T00:44:01.812Z,2.57
2022-12-24T00:46:33.112Z,1.97
2022-12-24T00:49:06.230Z,1.60
2022-12-24T00:51:38.786Z,2.60
2022-12-24T00:54:09.425Z,2.13
2022-12-24T00:56:44.888Z,2.00
2022-12-24T00:59:28.686Z,2.67
2022-12-24T01:02:01.778Z,1.50
2022-12-24T01:04:51.379Z,2.33
2022-12-24T01:07:25.763Z,2.73
2022-12-24T01:09:56.733Z,2.17
2022-12-24T01:12:26.870Z,2.10
2022-12-24T01:15:00.150Z,3.17
2022-12-24T01:17:30.878Z,2.10
2022-12-24T01:20:01.531Z,2.47
2022-12-24T01:22:32.260Z,1.90
2022-12-24T01:25:06.107Z,2.50
2022-12-24T01:27:35.382Z,2.37
2022-12-24T01:30:08.955Z,2.70
2022-12-24T01:32:39.166Z,2.63
2022-12-24T01:35:13.611Z,2.83
2022-12-24T01:37:44.768Z,2.83
2022-12-24T01:40:35.620Z,2.17
2022-12-24T01:43:24.965Z,3.10
2022-12-24T01:45:57.171Z,2.10
2022-12-24T01:48:37.191Z,2.87
2022-12-24T01:51:17.264Z,2.40
2022-12-24T01:53:51.903Z,3.17
2022-12-24T01:56:25.864Z,3.17
2022-12-24T01:58:57.689Z,2.13
2022-12-24T02:01:30.743Z,2.00
2022-12-24T02:04:03.816Z,2.40
2022-12-24T02:06:35.906Z,2.40
2022-12-24T02:09:05.316Z,3.13
2022-12-24T02:11:45.964Z,2.60
2022-12-24T02:14:15.993Z,2.47
2022-12-24T02:16:55.048Z,2.13
2022-12-24T02:20:26.001Z,2.77
2022-12-24T02:23:36.224Z,2.07
2022-12-24T02:26:29.376Z,3.20
2022-12-24T02:29:38.210Z,2.57
2022-12-24T02:32:16.107Z,2.43
2022-12-24T02:34:51.064Z,2.13
2022-12-24T02:37:24.645Z,1.83
2022-12-24T02:40:03.381Z,2.87
2022-12-24T02:42:40.803Z,3.53
2022-12-24T02:45:13.037Z,2.83
2022-12-24T02:47:46.013Z,3.70
2022-12-24T02:50:19.043Z,2.77
2022-12-24T02:52:51.348Z,2.63
2022-12-24T02:55:24.642Z,2.50
2022-12-24T02:58:13.015Z,2.90
2022-12-24T03:00:54.049Z,2.93
2022-12-24T03:03:40.927Z,3.13
2022-12-24T03:06:19.752Z,2.90
2022-12-24T03:08:55.073Z,2.87
2022-12-24T03:11:25.187Z,3.07
2022-12-24T03:13:57.245Z,2.50
2022-12-24T03:16:29.198Z,2.87
2022-12-24T03:19:02.783Z,3.13
2022-12-24T03:21:35.733Z,3.73
2022-12-24T03:24:07.332Z,3.17
2022-12-24T03:26:39.326Z,2.47
2022-12-24T03:29:09.424Z,3.80
2022-12-24T03:31:46.263Z,3.00
2022-12-24T03:34:19.743Z,4.93
2022-12-24T03:36:50.140Z,3.60
2022-12-24T03:39:18.815Z,3.57
2022-12-24T03:41:47.832Z,3.30
2022-12-24T03:44:18.947Z,2.53
2022-12-24T03:46:48.167Z,3.30
2022-12-24T03:49:19.198Z,2.47
2022-12-24T03:51:48.989Z,2.90
2022-12-24T03:54:20.460Z,3.47
2022-12-24T03:56:51.543Z,3.23
2022-12-24T03:59:21.768Z,3.70
2022-12-24T04:01:55.680Z,3.37
2022-12-24T04:04:34.302Z,2.67
2022-12-24T04:07:06.886Z,2.87
2022-12-24T04:09:39.154Z,3.33
2022-12-24T04:12:09.317Z,2.93
2022-12-24T04:14:41.843Z,4.10
2022-12-24T04:17:17.871Z,3.00
2022-12-24T04:19:51.806Z,3.07
2022-12-24T04:22:22.213Z,3.30
2022-12-24T04:24:58.653Z,2.30
2022-12-24T04:27:36.456Z,3.53
2022-12-24T04:30:09.448Z,2.97
2022-12-24T04:32:41.581Z,4.30
2022-12-24T04:35:14.480Z,4.20
2022-12-24T04:37:45.780Z,3.27
2022-12-24T04:40:14.583Z,3.40
2022-12-24T04:42:44.673Z,2.80
2022-12-24T04:45:13.208Z,2.70
2022-12-24T04:47:43.493Z,3.40
2022-12-24T04:50:15.705Z,3.13
2022-12-24T04:52:47.297Z,2.73
2022-12-24T04:55:16.322Z,2.40
2022-12-24T04:57:51.145Z,2.93
2022-12-24T05:00:23.062Z,1.97
2022-12-24T05:02:52.386Z,3.10
2022-12-24T05:05:22.916Z,3.47
2022-12-24T05:08:07.314Z,3.50
2022-12-24T05:10:37.491Z,2.73
2022-12-24T05:13:08.596Z,3.60
2022-12-24T05:15:42.087Z,4.00
2022-12-24T05:18:12.218Z,3.67
2022-12-24T05:20:46.754Z,3.37
2022-12-24T05:23:34.612Z,3.17
2022-12-24T05:26:21.545Z,3.03
2022-12-24T05:28:52.614Z,2.93
2022-12-24T05:31:29.978Z,3.43
2022-12-24T05:34:03.081Z,3.10
2022-12-24T05:36:33.990Z,3.20
2022-12-24T05:39:03.317Z,4.07
2022-12-24T05:41:34.083Z,4.13
2022-12-24T05:44:12.502Z,3.33
2022-12-24T05:46:44.449Z,3.03
2022-12-24T05:49:15.760Z,3.57
2022-12-24T05:51:45.906Z,3.20
2022-12-24T05:54:15.479Z,2.90
2022-12-24T05:56:44.880Z,3.23
2022-12-24T05:59:17.054Z,3.03
2022-12-24T06:01:49.918Z,3.70
2022-12-24T06:04:21.758Z,3.53
2022-12-24T06:07:01.037Z,3.20
2022-12-24T06:09:29.764Z,3.27
2022-12-24T06:12:01.790Z,3.77
2022-12-24T06:14:31.260Z,4.23
2022-12-24T06:17:05.955Z,4.03
2022-12-24T06:19:34.767Z,5.53
2022-12-24T06:22:07.716Z,3.53
2022-12-24T06:24:38.005Z,4.10
2022-12-24T06:27:11.554Z,3.67
2022-12-24T06:29:44.528Z,3.07
2022-12-24T06:32:16.920Z,3.57
2022-12-24T06:34:48.726Z,3.70
2022-12-24T06:37:22.212Z,3.20
2022-12-24T06:39:57.376Z,4.50
2022-12-24T06:42:28.399Z,4.00
2022-12-24T06:45:07.556Z,3.10
2022-12-24T06:47:37.595Z,4.40
2022-12-24T06:50:08.452Z,3.40
2022-12-24T06:52:42.448Z,3.70
2022-12-24T06:55:15.008Z,4.33
2022-12-24T06:57:54.538Z,4.80
2022-12-24T07:00:23.986Z,3.00
2022-12-24T07:02:52.983Z,2.90
2022-12-24T07:05:22.583Z,3.27
2022-12-24T07:07:55.164Z,4.80
2022-12-24T07:10:25.941Z,3.40
2022-12-24T07:12:55.395Z,3.67
2022-12-24T07:15:28.552Z,4.63
2022-12-24T07:17:58.597Z,4.37
2022-12-24T07:20:27.946Z,5.00
2022-12-24T07:23:02.919Z,4.63
2022-12-24T07:25:34.597Z,3.60
2022-12-24T07:28:04.113Z,4.60
2022-12-24T07:30:35.347Z,4.00
2022-12-24T07:33:06.177Z,4.47
2022-12-24T07:35:34.898Z,3.50
2022-12-24T07:38:10.072Z,3.00
2022-12-24T07:40:43.104Z,3.60
2022-12-24T07:43:16.631Z,3.67
2022-12-24T07:45:48.391Z,4.73
2022-12-24T07:48:20.671Z,4.10
2022-12-24T07:50:53.145Z,3.13
2022-12-24T07:53:29.227Z,3.83
2022-12-24T07:56:01.229Z,3.90
2022-12-24T07:58:29.889Z,3.43
2022-12-24T08:01:07.683Z,3.90
2022-12-24T08:03:39.507Z,3.63
2022-12-24T08:06:10.660Z,4.30
2022-12-24T08:08:40.964Z,4.07
2022-12-24T08:11:15.328Z,3.50
2022-12-24T08:13:49.795Z,4.30
2022-12-24T08:16:25.214Z,4.80
2022-12-24T08:18:56.976Z,3.77
2022-12-24T08:21:30.275Z,3.20
2022-12-24T08:24:10.605Z,4.10
2022-12-24T08:26:44.313Z,4.97
2022-12-24T08:29:16.773Z,5.77
2022-12-24T08:31:49.264Z,4.43
2022-12-24T08:34:25.441Z,4.30
2022-12-24T08:36:55.532Z,5.00
2022-12-24T08:39:36.233Z,5.87
2022-12-24T08:42:08.228Z,4.93
2022-12-24T08:44:48.314Z,4.10
2022-12-24T08:47:23.820Z,5.37
2022-12-24T08:52:44.550Z,4.30
2022-12-24T08:55:17.214Z,4.50
2022-12-24T08:57:50.175Z,3.30
2022-12-24T09:00:20.782Z,4.63
2022-12-24T09:02:52.592Z,3.67
2022-12-24T09:05:23.121Z,2.20
2022-12-24T09:07:53.649Z,3.70
2022-12-24T09:10:27.446Z,3.57
2022-12-24T09:12:57.161Z,3.70
2022-12-24T09:15:28.557Z,5.27
2022-12-24T09:18:07.034Z,4.37
2022-12-24T09:20:47.001Z,4.80
2022-12-24T09:23:22.185Z,3.20
2022-12-24T09:25:59.114Z,3.80
2022-12-24T09:28:27.850Z,5.63
2022-12-24T09:31:01.401Z,3.87
2022-12-24T09:33:34.876Z,3.70
2022-12-24T09:36:08.667Z,3.70
2022-12-24T09:38:42.301Z,5.00
2022-12-24T09:41:28.232Z,3.57
2022-12-24T09:44:07.804Z,4.27
2022-12-24T09:46:43.745Z,4.20
2022-12-24T09:49:18.471Z,4.20
2022-12-24T09:52:00.251Z,3.87
2022-12-24T09:54:36.544Z,5.73
2022-12-24T10:00:05.914Z,3.63
2022-12-24T10:02:41.596Z,4.83
2022-12-24T10:05:18.970Z,3.30
2022-12-24T10:07:53.834Z,4.20
2022-12-24T10:10:32.590Z,3.60
2022-12-24T10:13:13.573Z,4.63
2022-12-24T10:15:56.756Z,3.87
2022-12-24T10:18:47.306Z,3.57
2022-12-24T10:21:25.869Z,3.60
2022-12-24T10:24:07.729Z,4.40
2022-12-24T10:26:47.615Z,3.97
2022-12-24T10:29:31.067Z,3.80
2022-12-24T10:32:18.034Z,3.23
2022-12-24T10:34:52.468Z,3.20
2022-12-24T10:37:31.898Z,3.80
2022-12-24T10:40:03.320Z,2.83
2022-12-24T10:42:50.969Z,3.40
2022-12-24T10:45:33.405Z,2.93
2022-12-24T10:48:10.849Z,3.13
2022-12-24T10:50:54.574Z,3.47
2022-12-24T10:53:30.236Z,3.90
2022-12-24T10:56:08.756Z,3.90
2022-12-24T10:58:49.157Z,3.77
2022-12-24T11:01:19.812Z,4.23
2022-12-24T11:04:03.712Z,3.50
2022-12-24T11:06:36.208Z,4.23
2022-12-24T11:09:24.407Z,4.20
2022-12-24T11:11:54.643Z,3.87
2022-12-24T11:14:26.396Z,4.70
2022-12-24T11:17:01.339Z,4.03
2022-12-24T11:19:36.742Z,4.03
2022-12-24T11:22:11.554Z,3.70
2022-12-24T11:24:49.648Z,4.53
2022-12-24T11:27:42.760Z,4.67
2022-12-24T11:30:31.553Z,4.10
2022-12-24T11:33:37.689Z,4.33
2022-12-24T11:36:14.160Z,3.60
2022-12-24T11:38:44.761Z,3.97
2022-12-24T11:41:17.687Z,5.13
2022-12-24T11:43:54.270Z,4.47
2022-12-24T11:46:39.705Z,4.13
2022-12-24T11:49:28.437Z,3.47
2022-12-24T11:52:21.317Z,4.53
2022-12-24T11:55:16.618Z,3.60
2022-12-24T11:57:56.138Z,3.80
2022-12-24T12:00:32.533Z,4.63
2022-12-24T12:03:07.690Z,4.20
2022-12-24T12:05:44.449Z,4.00
2022-12-24T12:08:22.648Z,3.50
2022-12-24T12:10:54.813Z,4.10
2022-12-24T12:13:36.453Z,3.23
2022-12-24T12:16:17.340Z,3.60
2022-12-24T12:18:51.290Z,3.30
2022-12-24T12:21:31.035Z,3.37
2022-12-24T12:24:07.085Z,3.67
2022-12-24T12:26:37.256Z,4.20
2022-12-24T12:29:24.594Z,3.27
2022-12-24T12:31:59.883Z,4.37
2022-12-24T12:34:34.310Z,3.73
2022-12-24T12:37:15.022Z,3.33
2022-12-24T12:39:47.134Z,3.57
2022-12-24T12:42:25.135Z,2.70
2022-12-24T12:45:16.599Z,3.10
2022-12-24T12:48:14.143Z,3.03
2022-12-24T12:50:57.878Z,2.40
2022-12-24T12:53:59.253Z,2.67
2022-12-24T12:56:41.250Z,2.77
2022-12-24T13:02:10.828Z,1.70
2022-12-24T13:05:15.765Z,2.30
2022-12-24T13:08:02.494Z,1.67
2022-12-24T13:11:14.069Z,2.50
2022-12-24T13:14:18.542Z,1.80
2022-12-24T13:17:21.695Z,1.70
2022-12-24T13:20:15.036Z,2.67
2022-12-24T13:23:00.168Z,3.10
2022-12-24T13:25:36.334Z,2.90
2022-12-24T13:28:33.654Z,3.33
2022-12-24T13:31:32.229Z,3.10
2022-12-24T13:34:04.885Z,6.30
2022-12-24T13:37:05.335Z,4.17
2022-12-24T13:40:23.645Z,3.60
2022-12-24T13:43:07.841Z,3.50
2022-12-24T13:45:45.635Z,3.40
2022-12-24T13:48:31.727Z,3.43
2022-12-24T13:51:03.365Z,2.73
2022-12-24T13:53:35.599Z,3.23
2022-12-24T13:56:12.111Z,2.50
2022-12-24T13:58:45.940Z,2.37
2022-12-24T14:01:20.819Z,1.80
2022-12-24T14:03:55.503Z,2.70
2022-12-24T14:06:28.243Z,2.70
2022-12-24T14:09:01.924Z,2.90
2022-12-24T14:11:37.758Z,2.80
2022-12-24T14:14:29.574Z,2.20
2022-12-24T14:17:07.032Z,2.93
2022-12-24T14:19:44.362Z,1.43
2022-12-24T14:22:27.492Z,2.30
2022-12-24T14:24:59.878Z,2.80
2022-12-24T14:27:44.428Z,2.40
2022-12-24T14:30:20.865Z,2.60
2022-12-24T14:32:53.404Z,2.50
2022-12-24T14:35:26.611Z,3.20
2022-12-24T14:38:04.027Z,2.60
2022-12-24T14:40:37.381Z,2.40
2022-12-24T14:43:16.789Z,2.70
2022-12-24T14:45:53.575Z,2.67
2022-12-24T14:48:34.530Z,2.60
2022-12-24T14:51:13.307Z,2.17
2022-12-24T14:54:01.026Z,3.50
2022-12-24T14:56:29.819Z,1.83
2022-12-24T14:59:07.046Z,3.10
2022-12-24T15:01:36.469Z,2.53
2022-12-24T15:04:18.186Z,3.13
2022-12-24T15:06:52.599Z,2.60
2022-12-24T15:09:28.629Z,2.70
2022-12-24T15:12:03.371Z,2.70
2022-12-24T15:14:41.626Z,3.60
2022-12-24T15:17:18.542Z,3.83
2022-12-24T15:19:55.867Z,2.93
2022-12-24T15:22:36.922Z,8.57
2022-12-24T15:25:19.873Z,5.53
2022-12-24T15:27:51.697Z,3.40
2022-12-24T15:30:23.924Z,3.80
2022-12-24T15:32:55.977Z,3.40
2022-12-24T15:36:03.713Z,3.23
2022-12-24T15:38:42.109Z,3.00
2022-12-24T15:41:20.311Z,2.60
2022-12-24T15:43:51.866Z,2.97
2022-12-24T15:46:22.800Z,3.40
2022-12-24T15:49:01.594Z,3.53
2022-12-24T15:51:34.395Z,2.77
2022-12-24T15:54:17.231Z,3.70
2022-12-24T15:56:48.312Z,2.93
2022-12-24T15:59:36.785Z,4.67
2022-12-24T16:02:43.288Z,4.10
2022-12-24T16:05:37.742Z,3.10
2022-12-24T16:08:29.370Z,3.13
2022-12-24T16:11:18.938Z,3.30
2022-12-24T16:14:11.620Z,3.20
2022-12-24T16:16:45.298Z,3.47
2022-12-24T16:19:25.392Z,2.40
2022-12-24T16:21:59.490Z,3.13
2022-12-24T16:24:31.249Z,3.53
2022-12-24T16:27:01.707Z,6.00
2022-12-24T16:29:30.492Z,4.27
2022-12-24T16:32:02.330Z,2.83
2022-12-24T16:34:34.997Z,5.40
2022-12-24T16:37:04.491Z,6.67
2022-12-24T16:39:45.333Z,3.50
2022-12-24T16:42:33.758Z,3.80
2022-12-24T16:45:04.496Z,2.90
2022-12-24T16:47:42.415Z,2.57
2022-12-24T16:50:19.729Z,2.70
2022-12-24T16:52:48.737Z,3.03
2022-12-24T16:55:23.344Z,2.67
2022-12-24T16:57:54.717Z,2.67
2022-12-24T17:00:26.039Z,3.17
2022-12-24T17:02:55.440Z,3.17
2022-12-24T17:05:28.366Z,3.03
2022-12-24T17:08:00.372Z,2.43
2022-12-24T17:10:31.756Z,2.80
2022-12-24T17:13:02.955Z,3.30
2022-12-24T17:15:32.713Z,3.23
2022-12-24T17:18:02.914Z,3.17
2022-12-24T17:20:37.657Z,3.27
2022-12-24T17:23:08.115Z,2.90
2022-12-24T17:25:37.869Z,2.40
2022-12-24T17:28:10.058Z,3.00
2022-12-24T17:30:44.722Z,3.40
2022-12-24T17:33:16.152Z,3.10
2022-12-24T17:35:49.611Z,3.03
2022-12-24T17:38:21.050Z,1.83
2022-12-24T17:41:02.697Z,2.33
2022-12-24T17:43:38.344Z,2.63
2022-12-24T17:46:10.817Z,2.63
2022-12-24T17:48:43.201Z,2.40
2022-12-24T17:51:14.367Z,2.90
2022-12-24T17:53:44.422Z,2.47
2022-12-24T17:56:16.470Z,2.70
2022-12-24T17:58:49.801Z,2.60
2022-12-24T18:01:24.934Z,2.67
2022-12-24T18:03:55.585Z,2.50
2022-12-24T18:06:27.546Z,3.17
2022-12-24T18:09:00.073Z,2.33
2022-12-24T18:11:33.622Z,2.50
2022-12-24T18:14:10.737Z,2.20
2022-12-24T18:16:50.862Z,2.70
2022-12-24T18:19:21.668Z,2.33
2022-12-24T18:21:52.099Z,3.33
2022-12-24T18:24:22.645Z,2.87
2022-12-24T18:26:57.384Z,2.63
2022-12-24T18:29:28.768Z,2.30
2022-12-24T18:31:58.843Z,2.60
2022-12-24T18:34:31.678Z,2.30
2022-12-24T18:37:02.103Z,1.90
2022-12-24T18:39:30.519Z,2.70
2022-12-24T18:42:01.664Z,2.20
2022-12-24T18:44:34.726Z,2.33
2022-12-24T18:47:06.298Z,1.93
2022-12-24T18:49:38.037Z,3.10
2022-12-24T18:52:10.923Z,2.20
2022-12-24T18:54:41.490Z,3.10
2022-12-24T18:57:15.929Z,2.57
2022-12-24T18:59:49.519Z,2.47
2022-12-24T19:02:21.337Z,2.33
2022-12-24T19:04:49.947Z,2.70
2022-12-24T19:07:24.687Z,4.93
2022-12-24T19:09:55.835Z,6.37
2022-12-24T19:12:30.198Z,28.27
2022-12-24T19:15:01.591Z,27.97
2022-12-24T19:17:39.673Z,11.13
2022-12-24T19:20:13.766Z,10.60
2022-12-24T19:22:49.462Z,7.30
2022-12-24T19:25:19.858Z,6.70
2022-12-24T19:27:48.973Z,5.67
2022-12-24T19:30:22.058Z,5.97
2022-12-24T19:32:51.414Z,4.10
2022-12-24T19:35:22.190Z,3.80
2022-12-24T19:37:55.416Z,3.60
2022-12-24T19:40:29.694Z,3.37
2022-12-24T19:43:02.779Z,3.10
2022-12-24T19:45:36.626Z,3.40
2022-12-24T19:48:07.864Z,2.57
2022-12-24T19:50:38.528Z,2.90
2022-12-24T19:53:14.649Z,3.00
2022-12-24T19:55:47.594Z,3.30
2022-12-24T19:58:17.759Z,2.40
2022-12-24T20:00:49.326Z,2.77
2022-12-24T20:03:22.859Z,2.90
2022-12-24T20:05:56.439Z,2.87
2022-12-24T20:08:28.553Z,5.37
2022-12-24T20:10:57.960Z,5.03
2022-12-24T20:13:27.673Z,3.63
2022-12-24T20:15:58.933Z,2.77
2022-12-24T20:18:29.461Z,3.73
2022-12-24T20:21:00.771Z,3.80
2022-12-24T20:23:32.770Z,5.77
2022-12-24T20:26:06.471Z,7.10
2022-12-24T20:28:38.985Z,11.50
2022-12-24T20:31:14.981Z,9.87
2022-12-24T20:33:47.152Z,5.60
2022-12-24T20:36:18.723Z,6.00
2022-12-24T20:38:49.369Z,4.33
2022-12-24T20:41:24.207Z,4.07
2022-12-24T20:43:54.680Z,4.20
2022-12-24T20:46:26.227Z,5.47
2022-12-24T20:48:56.421Z,4.87
2022-12-24T20:51:33.353Z,3.70
2022-12-24T20:54:07.443Z,2.70
2022-12-24T20:56:38.381Z,3.40
2022-12-24T20:59:07.393Z,2.80
2022-12-24T21:01:39.482Z,2.80
2022-12-24T21:04:13.058Z,3.20
2022-12-24T21:06:41.552Z,3.73
2022-12-24T21:09:11.072Z,3.47
2022-12-24T21:11:56.611Z,5.57
2022-12-24T21:14:28.378Z,4.13
2022-12-24T21:16:59.496Z,5.73
2022-12-24T21:19:29.958Z,7.20
2022-12-24T21:21:58.794Z,4.40
2022-12-24T21:24:28.021Z,4.13
2022-12-24T21:26:58.933Z,3.80
2022-12-24T21:29:31.264Z,3.83
2022-12-24T21:32:06.261Z,3.53
2022-12-24T21:34:35.187Z,3.77
2022-12-24T21:37:04.626Z,5.17
2022-12-24T21:39:33.660Z,4.03
2022-12-24T21:42:07.393Z,4.37
2022-12-24T21:44:41.599Z,4.20
2022-12-24T21:47:24.827Z,3.20
2022-12-24T21:50:17.359Z,3.37
2022-12-24T21:52:53.527Z,3.07
2022-12-24T21:55:23.427Z,3.10
2022-12-24T21:57:55.948Z,3.07
2022-12-24T22:00:31.734Z,3.67
2022-12-24T22:03:04.370Z,4.53
2022-12-24T22:05:42.144Z,4.33
2022-12-24T22:08:30.709Z,3.50
2022-12-24T22:11:23.035Z,3.90
2022-12-24T22:13:59.715Z,4.20
2022-12-24T22:16:30.548Z,3.93
2022-12-24T22:19:11.723Z,4.03
2022-12-24T22:21:42.625Z,4.17
2022-12-24T22:24:12.989Z,4.10
2022-12-24T22:26:50.952Z,3.83
2022-12-24T22:29:22.535Z,3.10
2022-12-24T22:31:55.319Z,4.13
2022-12-24T22:34:37.390Z,3.70
2022-12-24T22:37:10.405Z,3.70
2022-12-24T22:39:43.199Z,3.63
2022-12-24T22:42:14.065Z,3.77
2022-12-24T22:44:51.000Z,4.00
2022-12-24T22:47:20.819Z,2.80
2022-12-24T22:49:58.637Z,2.33
2022-12-24T22:52:29.401Z,2.40
2022-12-24T22:55:05.917Z,3.17
2022-12-24T22:57:34.554Z,3.30
2022-12-24T23:00:03.514Z,2.80
2022-12-24T23:02:33.468Z,3.27
2022-12-24T23:05:05.051Z,1.97
2022-12-24T23:07:35.707Z,1.80
2022-12-24T23:10:05.273Z,3.33
2022-12-24T23:12:51.305Z,2.70
2022-12-24T23:15:20.102Z,2.53
2022-12-24T23:17:50.688Z,2.20
2022-12-24T23:20:21.529Z,2.60
2022-12-24T23:22:49.938Z,2.87
2022-12-24T23:25:19.331Z,3.23
2022-12-24T23:27:48.165Z,3.23
2022-12-24T23:30:18.076Z,2.37
2022-12-24T23:32:47.358Z,2.60
2022-12-24T23:35:16.313Z,2.63
2022-12-24T23:37:46.512Z,2.50
2022-12-24T23:40:15.264Z,3.00
2022-12-24T23:42:44.444Z,2.90
2022-12-24T23:45:13.361Z,3.67
2022-12-24T23:47:41.977Z,3.30
2022-12-24T23:50:12.684Z,3.13
2022-12-24T23:52:41.950Z,4.60
2022-12-24T23:55:12.050Z,4.90
2022-12-24T23:57:40.653Z,4.07
